createdAt,value
2019-05-21T00:00:57.352Z,14.86
2019-05-21T00:01:57.509Z,14.98
2019-05-21T00:02:57.658Z,14.90
2019-05-21T00:03:57.806Z,14.86
2019-05-21T00:04:57.957Z,14.88
2019-05-21T00:05:58.118Z,14.86
2019-05-21T00:06:58.262Z,14.98
2019-05-21T00:07:58.412Z,14.99
2019-05-21T00:08:58.561Z,14.94
2019-05-21T00:09:58.712Z,14.95
2019-05-21T00:10:58.865Z,14.90
2019-05-21T00:11:59.014Z,14.94
2019-05-21T00:12:59.163Z,14.95
2019-05-21T00:13:59.324Z,14.87
2019-05-21T00:14:59.467Z,15.03
2019-05-21T00:15:59.617Z,14.91
2019-05-21T00:16:59.771Z,15.03
2019-05-21T00:17:59.919Z,15.05
2019-05-21T00:19:00.068Z,15.05
2019-05-21T00:20:00.220Z,15.11
2019-05-21T00:21:00.369Z,15.06
2019-05-21T00:22:00.522Z,15.12
2019-05-21T00:23:00.673Z,15.13
2019-05-21T00:24:00.828Z,15.09
2019-05-21T00:25:00.977Z,15.15
2019-05-21T00:26:01.126Z,15.03
2019-05-21T00:27:01.277Z,15.01
2019-05-21T00:28:01.428Z,14.95
2019-05-21T00:29:01.580Z,15.01
2019-05-21T00:30:01.744Z,15.05
2019-05-21T00:31:01.908Z,15.08
2019-05-21T00:32:02.036Z,15.02
2019-05-21T00:33:02.192Z,15.05
2019-05-21T00:34:02.333Z,15.03
2019-05-21T00:35:02.482Z,15.06
2019-05-21T00:36:02.640Z,15.02
2019-05-21T00:37:02.780Z,15.03
2019-05-21T00:38:02.927Z,15.03
2019-05-21T00:39:03.080Z,15.02
2019-05-21T00:40:03.227Z,15.06
2019-05-21T00:41:03.390Z,15.02
2019-05-21T00:42:03.539Z,15.05
2019-05-21T00:43:03.681Z,15.12
2019-05-21T00:44:03.834Z,15.09
2019-05-21T00:45:03.982Z,15.15
2019-05-21T00:46:04.132Z,15.09
2019-05-21T00:47:04.284Z,15.05
2019-05-21T00:48:05.882Z,15.05
2019-05-21T00:49:04.585Z,14.99
2019-05-21T00:50:04.735Z,15.11
2019-05-21T00:51:04.886Z,15.03
2019-05-21T00:52:08.413Z,15.06
2019-05-21T00:53:05.189Z,15.09
2019-05-21T00:54:05.340Z,15.02
2019-05-21T00:55:05.492Z,15.09
2019-05-21T00:56:05.642Z,15.11
2019-05-21T00:57:05.793Z,15.13
2019-05-21T00:58:05.944Z,15.12
2019-05-21T00:59:06.098Z,15.12
2019-05-21T01:00:06.351Z,15.09
2019-05-21T01:01:06.408Z,15.21
2019-05-21T01:02:06.559Z,15.15
2019-05-21T01:03:06.700Z,15.21
2019-05-21T01:04:06.849Z,15.26
2019-05-21T01:05:06.999Z,15.30
2019-05-21T01:06:07.151Z,15.23
2019-05-21T01:07:07.301Z,15.27
2019-05-21T01:08:07.453Z,15.26
2019-05-21T01:09:07.608Z,15.20
2019-05-21T01:10:07.755Z,15.21
2019-05-21T01:11:07.909Z,15.23
2019-05-21T01:12:08.058Z,15.23
2019-05-21T01:13:08.208Z,15.27
2019-05-21T01:14:08.360Z,15.26
2019-05-21T01:15:08.511Z,15.20
2019-05-21T01:16:08.667Z,15.24
2019-05-21T01:17:08.829Z,15.26
2019-05-21T01:18:08.965Z,15.24
2019-05-21T01:19:09.117Z,15.33
2019-05-21T01:20:09.268Z,15.23
2019-05-21T01:21:09.420Z,15.36
2019-05-21T01:22:09.577Z,15.28
2019-05-21T01:23:09.721Z,15.36
2019-05-21T01:24:09.875Z,15.39
2019-05-21T01:25:10.026Z,15.43
2019-05-21T01:26:10.176Z,15.36
2019-05-21T01:27:10.327Z,15.35
2019-05-21T01:28:10.478Z,15.42
2019-05-21T01:29:10.628Z,15.39
2019-05-21T01:30:10.785Z,15.39
2019-05-21T01:31:10.932Z,15.33
2019-05-21T01:32:11.085Z,15.23
2019-05-21T01:33:11.235Z,15.20
2019-05-21T01:34:11.752Z,15.26
2019-05-21T01:35:17.332Z,15.13
2019-05-21T01:36:11.686Z,15.19
2019-05-21T01:37:11.834Z,15.15
2019-05-21T01:38:11.984Z,15.20
2019-05-21T01:39:12.140Z,15.11
2019-05-21T01:40:12.284Z,15.12
2019-05-21T01:41:12.435Z,15.23
2019-05-21T01:42:12.591Z,15.19
2019-05-21T01:43:12.739Z,15.21
2019-05-21T01:44:12.893Z,15.21
2019-05-21T01:45:13.045Z,15.06
2019-05-21T01:46:13.195Z,15.24
2019-05-21T01:47:13.347Z,15.26
2019-05-21T01:48:13.498Z,15.15
2019-05-21T01:49:13.650Z,15.21
2019-05-21T01:50:13.801Z,15.21
2019-05-21T01:51:13.953Z,15.20
2019-05-21T01:52:14.107Z,15.08
2019-05-21T01:53:14.256Z,15.09
2019-05-21T01:54:14.412Z,15.08
2019-05-21T01:55:14.560Z,15.12
2019-05-21T01:56:14.711Z,15.08
2019-05-21T01:57:14.871Z,15.11
2019-05-21T01:58:15.017Z,15.12
2019-05-21T01:59:15.169Z,15.17
2019-05-21T02:00:15.323Z,15.13
2019-05-21T02:01:15.472Z,15.06
2019-05-21T02:02:15.623Z,15.05
2019-05-21T02:03:15.776Z,15.06
2019-05-21T02:04:15.927Z,15.02
2019-05-21T02:05:16.079Z,14.88
2019-05-21T02:06:16.235Z,15.02
2019-05-21T02:07:16.382Z,14.99
2019-05-21T02:08:16.533Z,14.91
2019-05-21T02:09:16.682Z,14.90
2019-05-21T02:10:16.835Z,14.90
2019-05-21T02:11:16.986Z,14.80
2019-05-21T02:12:17.138Z,14.93
2019-05-21T02:13:17.289Z,14.88
2019-05-21T02:14:17.445Z,14.83
2019-05-21T02:15:17.592Z,14.74
2019-05-21T02:16:17.741Z,14.72
2019-05-21T02:17:17.894Z,14.80
2019-05-21T02:18:18.045Z,14.80
2019-05-21T02:19:18.196Z,14.81
2019-05-21T02:20:18.352Z,14.86
2019-05-21T02:21:18.500Z,14.90
2019-05-21T02:22:18.651Z,14.91
2019-05-21T02:23:18.809Z,14.81
2019-05-21T02:24:18.955Z,14.78
2019-05-21T02:25:19.108Z,14.83
2019-05-21T02:26:19.256Z,14.78
2019-05-21T02:27:19.405Z,14.84
2019-05-21T02:28:19.557Z,14.90
2019-05-21T02:29:19.709Z,14.83
2019-05-21T02:30:19.858Z,14.83
2019-05-21T02:31:20.009Z,14.83
2019-05-21T02:32:20.159Z,14.80
2019-05-21T02:33:20.311Z,14.91
2019-05-21T02:34:20.461Z,14.81
2019-05-21T02:35:20.613Z,14.75
2019-05-21T02:36:20.760Z,14.81
2019-05-21T02:37:20.910Z,14.83
2019-05-21T02:38:21.062Z,14.74
2019-05-21T02:39:21.217Z,14.83
2019-05-21T02:40:21.368Z,14.84
2019-05-21T02:41:21.517Z,14.75
2019-05-21T02:42:21.666Z,14.72
2019-05-21T02:43:21.822Z,14.75
2019-05-21T02:44:21.970Z,14.80
2019-05-21T02:45:22.123Z,14.80
2019-05-21T02:46:22.283Z,14.78
2019-05-21T02:47:22.428Z,14.71
2019-05-21T02:48:22.572Z,14.81
2019-05-21T02:49:22.725Z,14.71
2019-05-21T02:50:22.875Z,14.80
2019-05-21T02:51:23.039Z,14.62
2019-05-21T02:52:23.180Z,14.71
2019-05-21T02:53:23.333Z,14.72
2019-05-21T02:54:39.150Z,14.81
2019-05-21T02:55:23.641Z,14.78
2019-05-21T02:56:23.804Z,14.80
2019-05-21T02:57:23.935Z,14.74
2019-05-21T02:58:24.088Z,14.81
2019-05-21T02:59:24.246Z,14.84
2019-05-21T03:00:24.389Z,14.80
2019-05-21T03:01:24.540Z,14.67
2019-05-21T03:02:24.691Z,14.74
2019-05-21T03:03:24.841Z,14.75
2019-05-21T03:04:24.994Z,14.81
2019-05-21T03:05:25.149Z,14.81
2019-05-21T03:06:25.295Z,14.74
2019-05-21T03:07:25.820Z,14.81
2019-05-21T03:08:25.655Z,14.68
2019-05-21T03:09:25.751Z,14.68
2019-05-21T03:10:25.900Z,14.81
2019-05-21T03:11:26.056Z,14.80
2019-05-21T03:12:26.204Z,14.72
2019-05-21T03:13:26.354Z,14.69
2019-05-21T03:14:26.507Z,14.71
2019-05-21T03:15:26.657Z,14.68
2019-05-21T03:16:26.806Z,14.65
2019-05-21T03:17:26.958Z,14.65
2019-05-21T03:18:27.112Z,14.68
2019-05-21T03:19:27.262Z,14.67
2019-05-21T03:20:27.432Z,14.74
2019-05-21T03:21:27.566Z,14.81
2019-05-21T03:22:27.717Z,14.83
2019-05-21T03:23:27.867Z,14.88
2019-05-21T03:24:28.017Z,14.84
2019-05-21T03:25:28.167Z,14.84
2019-05-21T03:26:28.322Z,14.87
2019-05-21T03:27:28.472Z,14.88
2019-05-21T03:28:28.627Z,14.88
2019-05-21T03:29:28.779Z,14.80
2019-05-21T03:30:28.930Z,14.80
2019-05-21T03:31:29.080Z,14.98
2019-05-21T03:32:29.233Z,14.94
2019-05-21T03:33:29.381Z,14.95
2019-05-21T03:34:29.532Z,14.81
2019-05-21T03:35:29.684Z,14.93
2019-05-21T03:36:33.726Z,14.86
2019-05-21T03:37:29.985Z,14.95
2019-05-21T03:38:30.134Z,14.93
2019-05-21T03:39:30.289Z,14.90
2019-05-21T03:40:30.440Z,14.93
2019-05-21T03:41:30.594Z,14.88
2019-05-21T03:42:30.742Z,14.87
2019-05-21T03:43:30.892Z,14.88
2019-05-21T03:44:31.047Z,14.87
2019-05-21T03:45:31.194Z,14.90
2019-05-21T03:46:31.349Z,14.80
2019-05-21T03:47:31.496Z,14.84
2019-05-21T03:48:31.647Z,14.86
2019-05-21T03:49:31.805Z,14.84
2019-05-21T03:50:31.957Z,14.80
2019-05-21T03:51:32.105Z,14.86
2019-05-21T03:52:32.254Z,14.87
2019-05-21T03:53:32.406Z,14.91
2019-05-21T03:54:32.555Z,14.87
2019-05-21T03:55:32.701Z,14.86
2019-05-21T03:56:32.856Z,14.88
2019-05-21T03:57:33.005Z,14.80
2019-05-21T03:58:33.157Z,14.84
2019-05-21T03:59:33.309Z,14.80
2019-05-21T04:00:33.460Z,14.87
2019-05-21T04:01:33.608Z,14.80
2019-05-21T04:02:33.761Z,14.86
2019-05-21T04:03:33.914Z,14.90
2019-05-21T04:04:34.063Z,14.90
2019-05-21T04:05:34.212Z,14.90
2019-05-21T04:06:50.628Z,14.87
2019-05-21T04:07:34.512Z,14.80
2019-05-21T04:08:34.657Z,14.81
2019-05-21T04:09:34.813Z,14.81
2019-05-21T04:10:34.969Z,14.86
2019-05-21T04:11:35.112Z,14.90
2019-05-21T04:12:35.261Z,14.78
2019-05-21T04:13:35.416Z,14.80
2019-05-21T04:14:35.568Z,14.88
2019-05-21T04:15:35.716Z,14.86
2019-05-21T04:16:35.877Z,14.95
2019-05-21T04:17:36.022Z,14.88
2019-05-21T04:18:36.187Z,14.90
2019-05-21T04:19:36.321Z,14.94
2019-05-21T04:20:36.473Z,14.93
2019-05-21T04:21:36.634Z,14.88
2019-05-21T04:22:36.779Z,14.88
2019-05-21T04:23:36.936Z,14.81
2019-05-21T04:24:37.078Z,14.86
2019-05-21T04:25:37.231Z,14.84
2019-05-21T04:26:37.382Z,14.86
2019-05-21T04:27:37.530Z,14.84
2019-05-21T04:28:37.683Z,14.84
2019-05-21T04:29:37.841Z,14.78
2019-05-21T04:30:37.991Z,14.74
2019-05-21T04:31:38.132Z,14.71
2019-05-21T04:32:38.284Z,14.68
2019-05-21T04:33:38.445Z,14.62
2019-05-21T04:34:38.583Z,14.60
2019-05-21T04:35:38.737Z,14.71
2019-05-21T04:36:38.891Z,14.64
2019-05-21T04:37:39.042Z,14.57
2019-05-21T04:38:39.191Z,14.64
2019-05-21T04:39:39.341Z,14.65
2019-05-21T04:40:39.493Z,14.64
2019-05-21T04:41:39.640Z,14.53
2019-05-21T04:42:39.793Z,14.56
2019-05-21T04:43:39.943Z,14.61
2019-05-21T04:44:40.103Z,14.61
2019-05-21T04:45:40.246Z,14.56
2019-05-21T04:46:40.476Z,14.61
2019-05-21T04:47:40.543Z,14.60
2019-05-21T04:48:40.704Z,14.65
2019-05-21T04:49:40.847Z,14.64
2019-05-21T04:50:41.000Z,14.53
2019-05-21T04:51:41.146Z,14.61
2019-05-21T04:52:41.309Z,14.61
2019-05-21T04:53:41.464Z,14.57
2019-05-21T04:54:41.609Z,14.52
2019-05-21T04:55:41.762Z,14.57
2019-05-21T04:56:41.913Z,14.61
2019-05-21T04:57:42.062Z,14.61
2019-05-21T04:58:42.214Z,14.64
2019-05-21T04:59:42.364Z,14.69
2019-05-21T05:00:42.592Z,14.64
2019-05-21T05:01:42.668Z,14.65
2019-05-21T05:02:42.820Z,14.56
2019-05-21T05:03:42.975Z,14.62
2019-05-21T05:04:43.120Z,14.68
2019-05-21T05:05:43.273Z,14.61
2019-05-21T05:06:43.434Z,14.74
2019-05-21T05:07:43.573Z,14.62
2019-05-21T05:08:43.728Z,14.69
2019-05-21T05:09:43.877Z,14.74
2019-05-21T05:10:44.025Z,14.74
2019-05-21T05:11:44.180Z,14.81
2019-05-21T05:12:44.326Z,14.83
2019-05-21T05:13:44.480Z,14.88
2019-05-21T05:14:44.628Z,14.84
2019-05-21T05:15:44.781Z,14.90
2019-05-21T05:16:44.929Z,14.90
2019-05-21T05:17:45.081Z,14.93
2019-05-21T05:18:45.229Z,15.05
2019-05-21T05:19:45.378Z,14.91
2019-05-21T05:20:45.528Z,15.01
2019-05-21T05:21:45.679Z,14.95
2019-05-21T05:22:45.835Z,14.93
2019-05-21T05:23:45.984Z,14.91
2019-05-21T05:24:46.136Z,14.88
2019-05-21T05:25:46.291Z,14.91
2019-05-21T05:26:46.442Z,14.91
2019-05-21T05:27:46.597Z,14.87
2019-05-21T05:28:46.742Z,14.90
2019-05-21T05:29:46.893Z,14.93
2019-05-21T05:30:47.045Z,14.86
2019-05-21T05:31:47.193Z,14.88
2019-05-21T05:32:47.344Z,14.91
2019-05-21T05:33:47.527Z,14.91
2019-05-21T05:34:47.647Z,14.84
2019-05-21T05:35:47.797Z,14.86
2019-05-21T05:36:47.948Z,14.93
2019-05-21T05:37:49.176Z,14.88
2019-05-21T05:38:48.247Z,14.93
2019-05-21T05:39:48.404Z,14.95
2019-05-21T05:40:48.552Z,15.02
2019-05-21T05:41:48.702Z,14.90
2019-05-21T05:42:48.852Z,14.94
2019-05-21T05:43:49.004Z,14.99
2019-05-21T05:44:49.155Z,14.90
2019-05-21T05:45:49.308Z,14.94
2019-05-21T05:46:49.509Z,14.95
2019-05-21T05:47:49.608Z,14.88
2019-05-21T05:48:49.759Z,14.87
2019-05-21T05:49:49.910Z,14.95
2019-05-21T05:50:50.060Z,14.93
2019-05-21T05:51:50.214Z,14.94
2019-05-21T05:52:50.369Z,14.94
2019-05-21T05:53:50.513Z,14.88
2019-05-21T05:54:50.666Z,14.90
2019-05-21T05:55:50.819Z,14.90
2019-05-21T05:56:50.973Z,15.02
2019-05-21T05:57:51.117Z,14.90
2019-05-21T05:58:51.269Z,14.94
2019-05-21T05:59:51.420Z,14.91
2019-05-21T06:00:51.569Z,14.93
2019-05-21T06:01:51.723Z,14.95
2019-05-21T06:02:51.874Z,14.88
2019-05-21T06:03:52.024Z,14.98
2019-05-21T06:04:52.172Z,14.90
2019-05-21T06:05:52.326Z,14.99
2019-05-21T06:06:52.478Z,15.03
2019-05-21T06:07:59.626Z,14.94
2019-05-21T06:08:52.838Z,15.03
2019-05-21T06:09:52.927Z,15.03
2019-05-21T06:10:53.078Z,14.93
2019-05-21T06:11:53.228Z,15.05
2019-05-21T06:12:53.379Z,14.98
2019-05-21T06:13:53.529Z,15.02
2019-05-21T06:14:53.680Z,15.02
2019-05-21T06:15:53.833Z,15.01
2019-05-21T06:16:53.982Z,15.03
2019-05-21T06:17:54.129Z,15.01
2019-05-21T06:18:54.303Z,15.03
2019-05-21T06:19:54.429Z,14.90
2019-05-21T06:20:54.579Z,15.05
2019-05-21T06:21:54.730Z,14.99
2019-05-21T06:22:54.881Z,14.93
2019-05-21T06:23:55.028Z,15.03
2019-05-21T06:24:55.182Z,15.02
2019-05-21T06:25:55.335Z,15.01
2019-05-21T06:26:55.483Z,14.93
2019-05-21T06:27:55.635Z,14.95
2019-05-21T06:28:55.786Z,14.90
2019-05-21T06:29:55.935Z,14.87
2019-05-21T06:30:56.087Z,14.90
2019-05-21T06:31:56.236Z,14.94
2019-05-21T06:32:56.388Z,14.94
2019-05-21T06:33:56.541Z,14.94
2019-05-21T06:34:56.689Z,15.05
2019-05-21T06:35:56.847Z,15.01
2019-05-21T06:36:56.990Z,15.09
2019-05-21T06:37:57.140Z,15.15
2019-05-21T06:38:57.292Z,15.06
2019-05-21T06:39:57.446Z,15.06
2019-05-21T06:40:57.595Z,15.13
2019-05-21T06:41:57.762Z,15.12
2019-05-21T06:42:57.898Z,15.24
2019-05-21T06:43:58.048Z,15.24
2019-05-21T06:44:58.200Z,15.26
2019-05-21T06:45:58.351Z,15.31
2019-05-21T06:46:58.500Z,15.41
2019-05-21T06:47:58.650Z,15.39
2019-05-21T06:48:58.801Z,15.27
2019-05-21T06:49:59.023Z,15.48
2019-05-21T06:50:59.125Z,15.48
2019-05-21T06:51:59.270Z,15.28
2019-05-21T06:52:59.400Z,15.27
2019-05-21T06:53:59.548Z,15.31
2019-05-21T06:54:59.701Z,15.26
2019-05-21T06:55:59.855Z,15.46
2019-05-21T06:57:00.010Z,15.49
2019-05-21T06:58:00.154Z,15.46
2019-05-21T06:59:00.306Z,15.48
2019-05-21T07:00:00.468Z,15.52
2019-05-21T07:01:00.609Z,15.46
2019-05-21T07:02:00.759Z,15.41
2019-05-21T07:03:00.955Z,15.36
2019-05-21T07:04:01.063Z,15.36
2019-05-21T07:05:01.222Z,15.39
2019-05-21T07:06:01.368Z,15.31
2019-05-21T07:07:01.527Z,15.36
2019-05-21T07:08:01.681Z,15.45
2019-05-21T07:09:01.811Z,15.39
2019-05-21T07:10:01.965Z,15.45
2019-05-21T07:11:02.233Z,15.46
2019-05-21T07:12:02.269Z,15.39
2019-05-21T07:13:02.449Z,15.36
2019-05-21T07:14:02.561Z,15.36
2019-05-21T07:15:02.705Z,15.41
2019-05-21T07:16:02.876Z,15.26
2019-05-21T07:17:03.024Z,15.27
2019-05-21T07:18:03.171Z,15.30
2019-05-21T07:19:03.352Z,15.26
2019-05-21T07:20:03.475Z,15.19
2019-05-21T07:21:03.631Z,15.20
2019-05-21T07:22:12.564Z,15.12
2019-05-21T07:23:04.101Z,15.11
2019-05-21T07:24:04.088Z,15.13
2019-05-21T07:25:04.241Z,15.05
2019-05-21T07:26:04.387Z,15.11
2019-05-21T07:27:04.548Z,15.12
2019-05-21T07:28:04.691Z,15.08
2019-05-21T07:29:04.852Z,15.06
2019-05-21T07:30:04.994Z,15.05
2019-05-21T07:31:05.145Z,14.95
2019-05-21T07:32:05.298Z,15.02
2019-05-21T07:33:06.176Z,14.99
2019-05-21T07:34:05.590Z,15.05
2019-05-21T07:35:05.746Z,15.01
2019-05-21T07:36:05.894Z,15.06
2019-05-21T07:37:06.052Z,14.99
2019-05-21T07:38:06.198Z,15.08
2019-05-21T07:39:06.364Z,15.05
2019-05-21T07:40:06.502Z,15.12
2019-05-21T07:41:06.659Z,15.11
2019-05-21T07:42:06.806Z,15.12
2019-05-21T07:43:06.967Z,15.12
2019-05-21T07:44:07.179Z,15.24
2019-05-21T07:45:07.263Z,15.26
2019-05-21T07:46:07.408Z,15.39
2019-05-21T07:47:07.565Z,15.39
2019-05-21T07:48:07.716Z,15.41
2019-05-21T07:49:07.875Z,15.45
2019-05-21T07:50:08.018Z,15.39
2019-05-21T07:51:08.173Z,15.38
2019-05-21T07:52:08.323Z,15.31
2019-05-21T07:53:08.474Z,15.35
2019-05-21T07:54:08.622Z,15.38
2019-05-21T07:55:08.771Z,15.28
2019-05-21T07:56:08.925Z,15.28
2019-05-21T07:57:09.074Z,15.24
2019-05-21T07:58:09.227Z,15.28
2019-05-21T07:59:09.378Z,15.27
2019-05-21T08:00:09.527Z,15.19
2019-05-21T08:01:09.679Z,15.26
2019-05-21T08:02:09.828Z,15.12
2019-05-21T08:03:09.981Z,15.11
2019-05-21T08:04:10.134Z,15.09
2019-05-21T08:05:10.283Z,15.05
2019-05-21T08:06:10.433Z,15.02
2019-05-21T08:07:10.582Z,15.02
2019-05-21T08:08:10.733Z,15.03
2019-05-21T08:09:14.091Z,15.06
2019-05-21T08:10:11.036Z,15.05
2019-05-21T08:11:11.309Z,15.01
2019-05-21T08:12:36.837Z,14.99
2019-05-21T08:13:11.501Z,14.93
2019-05-21T08:14:11.638Z,15.05
2019-05-21T08:15:11.802Z,15.03
2019-05-21T08:16:11.939Z,15.11
2019-05-21T08:17:12.090Z,15.05
2019-05-21T08:18:12.248Z,15.01
2019-05-21T08:19:12.389Z,15.05
2019-05-21T08:20:12.544Z,15.03
2019-05-21T08:21:12.689Z,15.06
2019-05-21T08:22:12.840Z,15.05
2019-05-21T08:23:12.991Z,15.21
2019-05-21T08:24:13.143Z,15.15
2019-05-21T08:25:14.749Z,15.17
2019-05-21T08:26:13.445Z,15.21
2019-05-21T08:27:13.600Z,15.09
2019-05-21T08:28:13.754Z,15.09
2019-05-21T08:29:13.901Z,15.01
2019-05-21T08:30:14.072Z,15.02
2019-05-21T08:31:14.214Z,15.12
2019-05-21T08:32:14.352Z,15.11
2019-05-21T08:33:14.503Z,15.06
2019-05-21T08:34:14.655Z,15.09
2019-05-21T08:35:14.806Z,15.11
2019-05-21T08:36:14.957Z,15.26
2019-05-21T08:37:15.109Z,15.27
2019-05-21T08:38:15.270Z,15.36
2019-05-21T08:39:27.682Z,15.48
2019-05-21T08:40:15.566Z,15.52
2019-05-21T08:41:15.716Z,15.61
2019-05-21T08:42:15.867Z,15.63
2019-05-21T08:43:16.016Z,15.74
2019-05-21T08:44:16.166Z,15.81
2019-05-21T08:45:16.317Z,15.66
2019-05-21T08:46:16.473Z,15.74
2019-05-21T08:47:16.620Z,15.85
2019-05-21T08:48:16.774Z,15.92
2019-05-21T08:49:16.924Z,15.85
2019-05-21T08:50:17.078Z,15.74
2019-05-21T08:51:17.227Z,15.67
2019-05-21T08:52:17.379Z,15.67
2019-05-21T08:53:17.529Z,15.59
2019-05-21T08:54:17.681Z,15.67
2019-05-21T08:55:17.837Z,15.68
2019-05-21T08:56:17.991Z,15.75
2019-05-21T08:57:18.148Z,15.82
2019-05-21T08:58:18.294Z,15.72
2019-05-21T08:59:18.447Z,15.84
2019-05-21T09:00:18.596Z,15.88
2019-05-21T09:01:18.750Z,15.97
2019-05-21T09:02:18.901Z,15.97
2019-05-21T09:03:19.052Z,15.92
2019-05-21T09:04:19.222Z,15.99
2019-05-21T09:05:19.380Z,15.97
2019-05-21T09:06:19.514Z,15.82
2019-05-21T09:07:19.670Z,15.82
2019-05-21T09:08:19.819Z,15.75
2019-05-21T09:09:19.971Z,15.68
2019-05-21T09:10:20.121Z,15.67
2019-05-21T09:11:20.273Z,15.63
2019-05-21T09:12:20.424Z,15.54
2019-05-21T09:13:20.579Z,15.57
2019-05-21T09:14:20.728Z,15.60
2019-05-21T09:15:20.885Z,15.64
2019-05-21T09:16:21.033Z,15.61
2019-05-21T09:17:21.189Z,15.60
2019-05-21T09:18:21.339Z,15.52
2019-05-21T09:19:21.490Z,15.63
2019-05-21T09:20:21.643Z,15.48
2019-05-21T09:21:21.806Z,15.56
2019-05-21T09:22:21.947Z,15.57
2019-05-21T09:23:22.106Z,15.54
2019-05-21T09:24:22.250Z,15.52
2019-05-21T09:25:22.411Z,15.57
2019-05-21T09:26:22.556Z,15.48
2019-05-21T09:27:22.706Z,15.57
2019-05-21T09:28:22.863Z,15.59
2019-05-21T09:29:23.011Z,15.61
2019-05-21T09:30:23.168Z,15.49
2019-05-21T09:31:23.316Z,15.52
2019-05-21T09:32:23.468Z,15.49
2019-05-21T09:33:23.620Z,15.59
2019-05-21T09:34:23.771Z,15.52
2019-05-21T09:35:23.920Z,15.52
2019-05-21T09:36:25.352Z,15.52
2019-05-21T09:37:24.222Z,15.60
2019-05-21T09:38:24.372Z,15.60
2019-05-21T09:39:24.526Z,15.64
2019-05-21T09:40:24.677Z,15.48
2019-05-21T09:41:24.825Z,15.66
2019-05-21T09:42:24.977Z,15.75
2019-05-21T09:43:25.131Z,15.64
2019-05-21T09:44:25.280Z,15.67
2019-05-21T09:45:25.432Z,15.63
2019-05-21T09:46:25.585Z,15.68
2019-05-21T09:47:25.733Z,15.74
2019-05-21T09:48:25.882Z,15.64
2019-05-21T09:49:26.052Z,15.74
2019-05-21T09:50:26.195Z,15.74
2019-05-21T09:51:26.348Z,15.61
2019-05-21T09:52:26.496Z,15.64
2019-05-21T09:53:26.655Z,15.67
2019-05-21T09:54:26.803Z,15.63
2019-05-21T09:55:26.954Z,15.60
2019-05-21T09:56:27.103Z,15.54
2019-05-21T09:57:27.255Z,15.57
2019-05-21T09:58:27.434Z,15.46
2019-05-21T09:59:27.558Z,15.49
2019-05-21T10:00:27.711Z,15.60
2019-05-21T10:01:27.860Z,15.42
2019-05-21T10:02:28.016Z,15.48
2019-05-21T10:03:28.161Z,15.36
2019-05-21T10:04:28.318Z,15.42
2019-05-21T10:05:28.465Z,15.48
2019-05-21T10:06:28.617Z,15.51
2019-05-21T10:07:39.177Z,15.54
2019-05-21T10:08:28.921Z,15.54
2019-05-21T10:09:29.072Z,15.54
2019-05-21T10:10:29.221Z,15.61
2019-05-21T10:11:29.379Z,15.60
2019-05-21T10:12:29.525Z,15.70
2019-05-21T10:13:29.677Z,15.64
2019-05-21T10:14:33.908Z,15.64
2019-05-21T10:15:29.979Z,15.48
2019-05-21T10:16:30.130Z,15.63
2019-05-21T10:17:30.282Z,15.57
2019-05-21T10:18:30.433Z,15.57
2019-05-21T10:19:30.583Z,15.49
2019-05-21T10:20:30.735Z,15.52
2019-05-21T10:21:30.889Z,15.39
2019-05-21T10:22:31.038Z,15.51
2019-05-21T10:23:31.210Z,15.48
2019-05-21T10:24:31.341Z,15.54
2019-05-21T10:25:31.495Z,15.45
2019-05-21T10:26:31.644Z,15.49
2019-05-21T10:27:31.797Z,15.54
2019-05-21T10:28:31.946Z,15.66
2019-05-21T10:29:32.098Z,15.63
2019-05-21T10:30:32.249Z,15.67
2019-05-21T10:31:32.410Z,15.82
2019-05-21T10:32:32.562Z,15.82
2019-05-21T10:33:32.715Z,15.89
2019-05-21T10:34:32.866Z,16.01
2019-05-21T10:35:33.016Z,16.00
2019-05-21T10:36:33.181Z,15.92
2019-05-21T10:37:33.318Z,16.06
2019-05-21T10:38:33.474Z,16.11
2019-05-21T10:39:33.629Z,16.22
2019-05-21T10:40:33.777Z,16.23
2019-05-21T10:41:33.926Z,16.06
2019-05-21T10:42:34.168Z,16.15
2019-05-21T10:43:34.232Z,16.09
2019-05-21T10:44:34.391Z,16.06
2019-05-21T10:45:34.556Z,16.06
2019-05-21T10:46:34.689Z,15.94
2019-05-21T10:47:34.836Z,15.99
2019-05-21T10:48:34.987Z,15.89
2019-05-21T10:49:35.161Z,15.93
2019-05-21T10:50:35.307Z,16.09
2019-05-21T10:51:35.448Z,16.04
2019-05-21T10:52:35.597Z,15.99
2019-05-21T10:53:35.751Z,16.27
2019-05-21T10:54:35.901Z,16.31
2019-05-21T10:55:36.053Z,16.45
2019-05-21T10:56:47.406Z,16.68
2019-05-21T10:57:36.357Z,16.55
2019-05-21T10:58:36.514Z,16.37
2019-05-21T10:59:36.663Z,16.27
2019-05-21T11:00:36.819Z,16.38
2019-05-21T11:01:36.992Z,16.33
2019-05-21T11:02:37.122Z,16.35
2019-05-21T11:03:37.272Z,16.27
2019-05-21T11:04:37.436Z,16.34
2019-05-21T11:05:37.579Z,16.35
2019-05-21T11:06:37.731Z,16.41
2019-05-21T11:07:37.884Z,16.50
2019-05-21T11:08:38.104Z,16.50
2019-05-21T11:09:38.187Z,16.50
2019-05-21T11:10:38.342Z,16.63
2019-05-21T11:11:38.496Z,16.52
2019-05-21T11:12:38.657Z,16.53
2019-05-21T11:13:38.811Z,16.48
2019-05-21T11:14:38.953Z,16.55
2019-05-21T11:15:39.107Z,16.34
2019-05-21T11:16:39.260Z,16.34
2019-05-21T11:17:53.402Z,16.37
2019-05-21T11:18:39.563Z,16.37
2019-05-21T11:19:39.714Z,16.45
2019-05-21T11:20:39.866Z,16.41
2019-05-21T11:21:40.019Z,16.34
2019-05-21T11:22:40.168Z,16.34
2019-05-21T11:23:40.340Z,16.23
2019-05-21T11:24:40.479Z,16.23
2019-05-21T11:25:40.638Z,16.18
2019-05-21T11:26:40.783Z,16.18
2019-05-21T11:27:40.938Z,16.23
2019-05-21T11:28:41.089Z,16.40
2019-05-21T11:29:41.241Z,16.37
2019-05-21T11:30:41.394Z,16.41
2019-05-21T11:31:55.844Z,16.40
2019-05-21T11:32:41.700Z,16.48
2019-05-21T11:33:41.852Z,16.50
2019-05-21T11:34:42.005Z,16.50
2019-05-21T11:35:42.158Z,16.34
2019-05-21T11:36:42.319Z,16.40
2019-05-21T11:37:42.467Z,16.45
2019-05-21T11:38:42.614Z,16.26
2019-05-21T11:39:42.766Z,16.23
2019-05-21T11:40:42.924Z,16.44
2019-05-21T11:41:43.073Z,16.68
2019-05-21T11:42:43.228Z,16.65
2019-05-21T11:43:43.405Z,16.53
2019-05-21T11:44:43.531Z,16.60
2019-05-21T11:45:43.688Z,16.53
2019-05-21T11:46:43.839Z,16.45
2019-05-21T11:47:43.988Z,16.49
2019-05-21T11:48:44.141Z,16.48
2019-05-21T11:49:44.296Z,16.55
2019-05-21T11:50:44.448Z,16.59
2019-05-21T11:51:44.637Z,16.55
2019-05-21T11:52:44.753Z,16.52
2019-05-21T11:53:44.906Z,16.35
2019-05-21T11:54:45.058Z,16.50
2019-05-21T11:55:45.212Z,16.48
2019-05-21T11:56:45.365Z,16.68
2019-05-21T11:57:45.521Z,16.85
2019-05-21T11:58:45.671Z,16.70
2019-05-21T11:59:45.824Z,16.83
2019-05-21T12:00:45.988Z,16.88
2019-05-21T12:01:46.142Z,16.85
2019-05-21T12:02:46.285Z,16.77
2019-05-21T12:03:46.432Z,16.60
2019-05-21T12:04:46.588Z,16.77
2019-05-21T12:05:46.739Z,16.96
2019-05-21T12:06:46.892Z,16.88
2019-05-21T12:07:47.044Z,16.81
2019-05-21T12:08:56.311Z,16.60
2019-05-21T12:09:47.351Z,16.50
2019-05-21T12:10:47.503Z,16.52
2019-05-21T12:11:47.657Z,16.56
2019-05-21T12:12:47.809Z,16.42
2019-05-21T12:13:47.960Z,16.58
2019-05-21T12:14:48.118Z,16.52
2019-05-21T12:15:48.268Z,16.50
2019-05-21T12:16:48.420Z,16.52
2019-05-21T12:17:48.572Z,16.56
2019-05-21T12:18:48.725Z,16.60
2019-05-21T12:19:48.878Z,16.56
2019-05-21T12:20:49.030Z,16.45
2019-05-21T12:21:49.182Z,16.65
2019-05-21T12:22:49.338Z,16.62
2019-05-21T12:23:49.490Z,16.52
2019-05-21T12:24:49.644Z,16.55
2019-05-21T12:25:49.792Z,16.67
2019-05-21T12:26:49.945Z,16.58
2019-05-21T12:27:50.105Z,16.48
2019-05-21T12:28:50.263Z,16.53
2019-05-21T12:29:50.420Z,16.53
2019-05-21T12:30:50.569Z,16.48
2019-05-21T12:31:50.718Z,16.59
2019-05-21T12:32:50.874Z,16.59
2019-05-21T12:33:51.021Z,16.65
2019-05-21T12:34:51.173Z,16.71
2019-05-21T12:35:51.362Z,16.70
2019-05-21T12:36:51.482Z,16.70
2019-05-21T12:37:51.634Z,16.70
2019-05-21T12:38:51.786Z,16.63
2019-05-21T12:39:51.939Z,16.73
2019-05-21T12:40:52.091Z,16.86
2019-05-21T12:41:52.252Z,16.85
2019-05-21T12:42:52.405Z,16.70
2019-05-21T12:43:52.557Z,16.78
2019-05-21T12:44:52.723Z,16.83
2019-05-21T12:45:52.860Z,16.88
2019-05-21T12:46:53.013Z,16.99
2019-05-21T12:47:53.168Z,16.96
2019-05-21T12:48:53.321Z,16.96
2019-05-21T12:49:53.477Z,16.78
2019-05-21T12:50:53.626Z,16.83
2019-05-21T12:51:53.778Z,16.78
2019-05-21T12:52:53.955Z,16.85
2019-05-21T12:53:54.083Z,16.88
2019-05-21T12:54:54.236Z,16.80